Time;durP1;ratioP1;P1;durP2;ratioP2;P2;SDS_P1;SDS_P2;PMS_P1;PMS_P2;Temp;Humidity;BMP_temperature;BMP_pressure;BME280_temperature;BME280_humidity;BME280_pressure;Samples;Min_cycle;Max_cycle;Signal;HPM_P1;HPM_P2
2022/09/04 00:00:11;;;;;;;5.88;5.25;;;;;;;16.86;79.89;101252.31;5017458;28;20034;-72
2022/09/04 00:02:50;;;;;;;5.50;4.85;;;;;;;16.91;79.13;101268.16;5010153;28;20443;-72
2022/09/04 00:05:21;;;;;;;6.38;5.20;;;;;;;16.91;80.11;101266.22;5004430;28;20080;-72
2022/09/04 00:08:17;;;;;;;6.22;5.28;;;;;;;16.98;79.05;101268.78;5017744;28;20180;-72
2022/09/04 00:11:02;;;;;;;5.75;5.18;;;;;;;17.00;79.07;101263.81;4997995;28;20072;-72
2022/09/04 00:13:51;;;;;;;6.95;5.30;;;;;;;17.01;78.61;101276.59;5019581;28;20037;-72
2022/09/04 00:16:21;;;;;;;5.93;5.43;;;;;;;16.85;79.31;101279.22;5006207;28;20095;-72
2022/09/04 00:19:01;;;;;;;5.90;5.30;;;;;;;16.72;78.94;101282.41;5003275;28;20068;-72
2022/09/04 00:21:37;;;;;;;5.80;4.80;;;;;;;16.57;79.43;101284.97;5017697;28;20033;-72
2022/09/04 00:24:07;;;;;;;6.72;4.97;;;;;;;16.51;79.86;101286.00;5011928;28;20112;-72
2022/09/04 00:27:12;;;;;;;6.38;5.40;;;;;;;16.56;79.22;101283.28;5003999;28;20041;-72
2022/09/04 00:29:55;;;;;;;5.97;5.32;;;;;;;16.61;79.61;101277.81;5002685;28;20057;-72
2022/09/04 00:32:37;;;;;;;6.30;5.30;;;;;;;16.66;80.00;101285.34;5003873;28;20389;-72
2022/09/04 00:35:21;;;;;;;5.75;5.15;;;;;;;16.63;80.30;101281.19;5014621;28;20029;-72
2022/09/04 00:38:01;;;;;;;6.13;5.32;;;;;;;16.49;80.75;101286.28;5022705;28;20483;-72
2022/09/04 00:40:58;;;;;;;10.80;5.35;;;;;;;16.46;79.10;101284.00;5008434;28;20033;-72
2022/09/04 00:43:45;;;;;;;6.90;4.68;;;;;;;16.25;80.72;101287.66;5021744;28;20064;-72
2022/09/04 00:46:22;;;;;;;6.38;5.25;;;;;;;16.20;80.56;101291.19;4983379;28;20038;-72
2022/09/04 00:49:05;;;;;;;6.22;5.03;;;;;;;16.13;80.36;101292.47;4997046;28;20040;-72
2022/09/04 00:51:43;;;;;;;5.53;5.00;;;;;;;15.90;80.68;101288.84;5021941;28;20034;-71
2022/09/04 00:54:30;;;;;;;7.00;5.10;;;;;;;15.83;80.86;101294.56;5006823;28;20068;-72
2022/09/04 00:57:33;;;;;;;6.93;5.30;;;;;;;15.87;80.85;101289.38;5003014;28;20030;-72
2022/09/04 01:00:13;;;;;;;6.47;5.78;;;;;;;15.84;82.59;101295.41;5002273;28;20164;-72
2022/09/04 01:03:02;;;;;;;5.97;5.25;;;;;;;15.96;81.95;101289.75;5007223;28;20470;-72
2022/09/04 01:05:58;;;;;;;7.18;5.60;;;;;;;15.94;81.90;101298.31;5009865;28;20029;-72
2022/09/04 01:08:48;;;;;;;6.00;5.40;;;;;;;15.92;82.58;101299.69;5017302;22;20049;-72
2022/09/04 01:11:36;;;;;;;5.80;5.30;;;;;;;15.80;82.28;101299.75;5019858;28;20041;-72
2022/09/04 01:14:20;;;;;;;6.13;5.15;;;;;;;15.78;82.04;101297.25;5022853;28;20618;-72
2022/09/04 01:16:55;;;;;;;7.40;5.57;;;;;;;15.74;83.55;101306.31;5023619;28;20395;-71
2022/09/04 01:19:23;;;;;;;7.10;6.20;;;;;;;15.78;84.50;101304.72;5010990;28;20030;-67
2022/09/04 01:22:25;;;;;;;6.18;5.57;;;;;;;15.83;83.49;101313.13;5004056;28;20030;-71
2022/09/04 01:25:26;;;;;;;5.97;5.38;;;;;;;15.63;83.71;101318.31;5018062;28;20076;-71
2022/09/04 01:28:06;;;;;;;5.53;4.95;;;;;;;15.56;82.62;101327.63;5008941;28;20756;-71
2022/09/04 01:30:59;;;;;;;5.70;5.20;;;;;;;15.54;83.03;101329.81;5004589;28;20373;-71
2022/09/04 01:33:37;;;;;;;6.35;5.60;;;;;;;15.48;84.24;101325.28;5022347;28;20509;-71
2022/09/04 01:36:26;;;;;;;5.97;5.47;;;;;;;15.47;84.16;101326.38;5025096;28;20038;-71
2022/09/04 01:38:56;;;;;;;5.40;5.00;;;;;;;15.44;84.14;101329.63;5026079;28;20116;-71
2022/09/04 01:41:41;;;;;;;5.82;5.32;;;;;;;15.51;84.30;101333.09;5026343;28;20040;-71
2022/09/04 01:44:10;;;;;;;6.50;5.90;;;;;;;15.53;85.59;101341.13;5024684;28;20471;-71
2022/09/04 01:46:43;;;;;;;;;;;;;;;15.71;81.38;101337.28;5026045;28;20041;-71
2022/09/04 01:49:25;;;;;;;6.63;6.03;;;;;;;15.61;85.37;101335.16;5012208;28;19949;-71
2022/09/04 01:52:28;;;;;;;6.20;5.60;;;;;;;15.55;84.13;101337.00;5011412;28;20113;-71
2022/09/04 01:55:15;;;;;;;5.95;5.40;;;;;;;15.46;84.08;101338.53;5024981;28;20037;-72
2022/09/04 01:57:43;;;;;;;6.13;5.47;;;;;;;15.31;84.78;101341.88;5026084;28;20041;-71
2022/09/04 02:00:14;;;;;;;;;;;;;;;15.45;81.55;101336.84;5026726;28;20384;-72
2022/09/04 02:02:53;;;;;;;6.78;5.88;;;;;;;15.34;85.68;101340.53;5026409;28;19916;-71
2022/09/04 02:05:28;;;;;;;6.78;6.18;;;;;;;15.39;86.77;101343.38;5026837;28;20096;-71
2022/09/04 02:08:10;;;;;;;6.45;5.85;;;;;;;15.45;86.95;101347.91;5025866;28;20057;-72
2022/09/04 02:10:57;;;;;;;7.35;6.65;;;;;;;15.50;87.03;101350.78;5025477;28;22102;-71
2022/09/04 02:13:43;;;;;;;6.90;6.30;;;;;;;15.52;87.24;101359.69;5025093;28;20484;-71
2022/09/04 02:16:33;;;;;;;5.50;4.97;;;;;;;15.47;85.52;101362.38;5021341;28;20056;-71
2022/09/04 02:19:12;;;;;;;6.30;5.38;;;;;;;15.41;84.41;101363.38;5026431;28;20083;-71
2022/09/04 02:22:00;;;;;;;6.30;5.70;;;;;;;15.38;84.40;101361.09;5025872;28;20033;-71
2022/09/04 02:24:46;;;;;;;;;;;;;;;15.50;81.93;101367.38;5026276;28;20033;-71
2022/09/04 02:27:20;;;;;;;6.35;5.65;;;;;;;15.32;84.22;101360.16;5023001;28;19917;-71
2022/09/04 02:29:50;;;;;;;6.28;5.72;;;;;;;15.30;85.21;101364.25;5006518;28;20026;-71
2022/09/04 02:32:42;;;;;;;5.82;5.32;;;;;;;15.22;84.56;101365.53;5013670;28;20029;-71
2022/09/04 02:35:28;;;;;;;6.32;5.70;;;;;;;15.19;84.91;101376.22;4974101;28;20116;-72
2022/09/04 02:38:25;;;;;;;6.68;5.88;;;;;;;15.13;85.57;101377.22;5026191;28;20080;-71
2022/09/04 02:40:51;;;;;;;;;;;;;;;15.29;82.11;101370.88;4987870;28;20084;-72
2022/09/04 02:43:34;;;;;;;6.72;6.13;;;;;;;15.12;84.61;101381.94;5025794;28;19944;-71
2022/09/04 02:46:30;;;;;;;6.88;5.85;;;;;;;15.04;84.60;101371.25;5023446;28;20715;-71
2022/09/04 02:49:47;;;;;;;6.75;6.05;;;;;;;15.06;85.47;101374.63;5025900;28;20037;-71
2022/09/04 02:52:37;;;;;;;6.90;6.20;;;;;;;15.08;86.70;101375.22;4991796;28;20045;-71
2022/09/04 02:55:33;;;;;;;7.32;6.30;;;;;;;15.05;86.73;101381.22;5024969;28;20112;-71
2022/09/04 02:58:17;;;;;;;7.15;6.43;;;;;;;15.02;87.33;101387.28;5025767;28;20033;-72
2022/09/04 03:00:53;;;;;;;7.60;6.53;;;;;;;15.04;88.76;101385.09;5024521;28;20040;-71
2022/09/04 03:03:33;;;;;;;7.97;7.25;;;;;;;15.04;88.93;101387.84;5026176;28;20124;-71
2022/09/04 03:06:09;;;;;;;7.88;7.07;;;;;;;15.05;89.84;101392.28;5024994;28;20068;-71
2022/09/04 03:08:44;;;;;;;6.97;6.38;;;;;;;15.08;88.67;101393.75;5025670;28;20041;-71
2022/09/04 03:11:32;;;;;;;7.07;6.38;;;;;;;15.13;88.31;101404.91;5024965;28;20018;-71
2022/09/04 03:14:14;;;;;;;7.13;6.32;;;;;;;15.01;88.29;101396.66;5024444;28;20030;-71
2022/09/04 03:16:47;;;;;;;6.97;6.38;;;;;;;14.96;88.43;101400.16;5025443;28;20057;-71
2022/09/04 03:19:26;;;;;;;6.97;6.28;;;;;;;14.96;88.40;101402.09;5024965;28;20064;-71
2022/09/04 03:21:59;;;;;;;7.72;6.95;;;;;;;15.02;89.69;101403.88;5025184;28;20084;-71
2022/09/04 03:25:01;;;;;;;7.47;6.78;;;;;;;15.11;89.76;101401.56;5024637;28;20547;-71
2022/09/04 03:27:29;;;;;;;7.80;6.90;;;;;;;15.14;91.40;101399.13;5005275;28;20049;-71
2022/09/04 03:30:02;;;;;;;7.35;6.75;;;;;;;15.13;91.85;101399.38;5004453;28;20061;-71
2022/09/04 03:32:35;;;;;;;7.85;7.13;;;;;;;15.13;92.26;101402.13;5005097;28;20049;-71
2022/09/04 03:35:38;;;;;;;7.20;6.50;;;;;;;15.16;91.89;101398.88;5020508;28;20466;-71
2022/09/04 03:38:27;;;;;;;7.70;7.00;;;;;;;15.10;91.10;101403.47;5018209;28;20044;-71
2022/09/04 03:41:26;;;;;;;7.30;6.68;;;;;;;15.13;91.82;101410.44;5004298;28;20040;-70
2022/09/04 03:44:17;;;;;;;7.35;6.68;;;;;;;15.13;92.55;101410.44;5005172;28;20477;-71
2022/09/04 03:46:57;;;;;;;7.68;6.97;;;;;;;15.15;92.98;101406.31;5025045;28;20056;-70
2022/09/04 03:49:41;;;;;;;7.60;6.90;;;;;;;15.17;93.48;101408.88;5025036;28;20112;-70
2022/09/04 03:52:18;;;;;;;7.90;7.10;;;;;;;15.12;93.04;101409.59;5024397;28;20117;-72
2022/09/04 03:55:29;;;;;;;8.45;7.65;;;;;;;15.14;93.06;101415.72;5024106;28;20503;-72
2022/09/04 03:58:26;;;;;;;7.90;6.78;;;;;;;14.98;90.66;101411.81;5024269;28;20040;-72
2022/09/04 04:00:59;;;;;;;6.95;6.25;;;;;;;14.90;91.89;101412.22;5023984;28;20029;-72
2022/09/04 04:03:59;;;;;;;7.68;6.97;;;;;;;15.05;92.40;101408.88;5024725;28;20033;-72
2022/09/04 04:06:35;;;;;;;8.52;7.72;;;;;;;15.00;94.57;101417.97;4924991;29;20071;-71
2022/09/04 04:09:18;;;;;;;8.43;7.63;;;;;;;14.97;92.50;101425.91;5008949;28;20056;-71
2022/09/04 04:11:58;;;;;;;8.15;7.35;;;;;;;14.98;93.85;101422.03;5024258;28;20032;-72
2022/09/04 04:15:03;;;;;;;8.18;7.47;;;;;;;14.98;93.08;101422.88;5023228;28;20041;-72
2022/09/04 04:17:47;;;;;;;8.68;7.85;;;;;;;14.89;93.36;101432.63;5024064;28;20037;-72
2022/09/04 04:20:24;;;;;;;8.20;7.40;;;;;;;14.89;93.46;101431.81;5023740;28;20040;-72
2022/09/04 04:23:01;;;;;;;8.90;8.10;;;;;;;14.96;94.92;101427.81;5024863;28;20037;-72
2022/09/04 04:25:51;;;;;;;8.23;7.43;;;;;;;14.92;93.93;101436.84;5022605;28;20033;-72
2022/09/04 04:28:47;;;;;;;8.35;7.55;;;;;;;14.92;94.63;101443.22;5024392;28;20472;-72
2022/09/04 04:31:44;;;;;;;8.90;8.10;;;;;;;14.94;94.60;101434.69;5023375;28;20021;-71
2022/09/04 04:34:20;;;;;;;8.68;7.88;;;;;;;14.83;93.57;101444.69;5015601;28;20031;-72
2022/09/04 04:36:59;;;;;;;9.27;8.38;;;;;;;14.77;94.91;101445.69;5024018;28;20096;-71
2022/09/04 04:39:37;;;;;;;8.35;7.55;;;;;;;14.65;93.32;101448.47;5023025;28;20500;-71
2022/09/04 04:42:31;;;;;;;9.50;8.50;;;;;;;14.69;94.03;101446.88;5022511;28;20079;-71
2022/09/04 04:48:14;;;;;;;9.23;8.32;;;;;;;14.57;92.51;101457.13;5023599;28;20571;-71
2022/09/04 04:50:46;;;;;;;9.15;8.25;;;;;;;14.55;93.55;101456.53;5023581;28;20361;-71
2022/09/04 04:53:59;;;;;;;9.40;8.50;;;;;;;14.64;93.51;101462.50;5022678;28;20120;-71
2022/09/04 04:56:32;;;;;;;9.57;8.57;;;;;;;14.66;94.34;101463.97;5013870;28;20081;-71
2022/09/04 04:59:22;;;;;;;9.93;9.02;;;;;;;14.71;94.50;101464.09;5022541;28;20022;-72
2022/09/04 05:02:06;;;;;;;10.57;9.27;;;;;;;14.73;95.70;101461.06;5023570;28;20021;-71
2022/09/04 05:04:46;;;;;;;9.73;8.73;;;;;;;14.66;94.29;101472.25;5023354;28;20065;-71
2022/09/04 05:07:45;;;;;;;10.45;9.35;;;;;;;14.70;95.50;101465.16;5022550;28;20021;-71
2022/09/04 05:10:19;;;;;;;10.65;9.57;;;;;;;14.68;94.69;101477.53;5022242;28;20673;-71
2022/09/04 05:13:11;;;;;;;10.00;9.00;;;;;;;14.69;94.68;101479.22;5022671;28;20061;-72
2022/09/04 05:16:07;;;;;;;11.27;9.85;;;;;;;14.68;95.29;101475.63;5022247;28;20060;-71
2022/09/04 05:18:56;;;;;;;10.88;9.88;;;;;;;14.72;96.38;101481.50;5023577;28;20033;-71
2022/09/04 05:21:58;;;;;;;10.88;9.77;;;;;;;14.75;96.22;101483.78;5022902;28;20137;-72
2022/09/04 05:24:29;;;;;;;11.23;10.13;;;;;;;14.76;96.51;101488.25;5023089;28;20694;-72
2022/09/04 05:27:02;;;;;;;10.35;9.35;;;;;;;14.77;96.33;101496.28;5022396;28;20040;-71
2022/09/04 05:29:46;;;;;;;11.60;10.52;;;;;;;14.83;97.71;101499.16;5022691;28;20036;-72
2022/09/04 05:32:20;;;;;;;11.93;10.73;;;;;;;14.86;97.80;101505.06;5021587;28;20021;-72
2022/09/04 05:35:23;;;;;;;12.27;11.05;;;;;;;14.92;98.15;101508.78;5023780;28;20021;-71
2022/09/04 05:38:09;;;;;;;12.23;11.00;;;;;;;14.92;98.05;101511.53;5023599;28;20030;-71
2022/09/04 05:40:56;;;;;;;11.93;10.70;;;;;;;14.90;98.00;101510.91;5022894;28;20029;-72
2022/09/04 05:43:37;;;;;;;12.90;11.70;;;;;;;14.99;97.56;101515.84;5021997;28;20092;-71
2022/09/04 05:46:31;;;;;;;12.68;11.48;;;;;;;15.04;97.64;101521.47;5022665;28;20144;-71
2022/09/04 05:49:26;;;;;;;12.73;11.43;;;;;;;15.08;97.05;101534.84;5017019;28;20682;-71
2022/09/04 05:52:02;;;;;;;13.00;11.70;;;;;;;15.13;97.40;101529.41;5002767;28;20025;-71
2022/09/04 05:55:05;;;;;;;14.40;13.00;;;;;;;15.21;99.16;101535.41;5015997;28;20021;-71
2022/09/04 05:57:41;;;;;;;13.80;12.40;;;;;;;15.26;99.05;101541.06;5002930;28;20041;-72
2022/09/04 06:00:15;;;;;;;14.13;12.77;;;;;;;15.34;98.97;101547.28;5002110;28;20026;-71
2022/09/04 06:03:09;;;;;;;14.68;13.27;;;;;;;15.40;99.19;101549.06;5008237;28;20044;-72
2022/09/04 06:05:43;;;;;;;15.43;13.93;;;;;;;15.44;99.10;101548.31;5022843;28;20033;-72
2022/09/04 06:08:25;;;;;;;15.52;13.82;;;;;;;15.53;100.00;101552.38;5019271;28;20049;-71
2022/09/04 06:10:59;;;;;;;16.73;15.10;;;;;;;15.61;100.00;101547.53;5002766;28;20088;-67
2022/09/04 06:13:51;;;;;;;16.00;14.32;;;;;;;15.72;99.41;101555.00;5013220;28;20349;-72
2022/09/04 06:16:31;;;;;;;16.92;15.18;;;;;;;15.80;99.34;101551.81;5022791;28;20044;-72
2022/09/04 06:19:08;;;;;;;17.63;15.82;;;;;;;15.91;99.44;101550.06;5022330;28;20055;-71
2022/09/04 06:22:04;;;;;;;17.25;15.55;;;;;;;16.03;98.71;101557.25;5025002;28;20030;-73
2022/09/04 06:24:36;;;;;;;18.50;16.65;;;;;;;16.11;98.77;101553.22;5025450;28;20030;-72
2022/09/04 06:27:28;;;;;;;18.65;16.75;;;;;;;16.19;98.81;101554.75;5025773;28;20037;-72
2022/09/04 06:30:16;;;;;;;19.98;17.88;;;;;;;16.28;97.93;101562.38;5024004;28;20443;-71
2022/09/04 06:33:00;;;;;;;19.95;17.90;;;;;;;16.34;97.90;101555.84;5022481;28;20025;-72
2022/09/04 06:35:43;;;;;;;24.38;17.42;;;;;;;16.42;97.93;101564.81;5026093;28;20025;-72
2022/09/04 06:38:28;;;;;;;19.38;17.48;;;;;;;16.49;97.67;101563.56;5025391;28;20531;-72
2022/09/04 06:41:09;;;;;;;19.08;17.02;;;;;;;16.54;97.56;101566.41;5024313;28;20108;-72
2022/09/04 06:43:47;;;;;;;20.73;17.85;;;;;;;16.61;97.27;101572.63;5025174;28;20025;-72
2022/09/04 06:46:22;;;;;;;;;;;;;;;16.70;95.06;101569.44;5025921;28;20040;-72
2022/09/04 06:49:12;;;;;;;21.52;18.65;;;;;;;16.75;96.42;101572.31;5025973;28;19920;-72
2022/09/04 06:51:55;;;;;;;21.92;19.63;;;;;;;16.84;96.34;101574.41;5025952;28;20645;-72
2022/09/04 06:54:51;;;;;;;21.48;19.17;;;;;;;16.93;96.17;101577.59;5025714;28;20028;-72
2022/09/04 06:57:53;;;;;;;22.58;19.98;;;;;;;17.04;95.91;101579.41;5025293;28;20400;-72
2022/09/04 07:00:19;;;;;;;24.35;21.08;;;;;;;17.10;95.25;101574.75;5024740;28;20034;-72
2022/09/04 07:03:09;;;;;;;24.08;21.38;;;;;;;17.18;94.42;101568.75;5025194;28;20071;-71
2022/09/04 07:05:53;;;;;;;24.17;21.65;;;;;;;17.31;94.16;101575.88;5014560;28;20392;-72
2022/09/04 07:08:31;;;;;;;27.85;23.60;;;;;;;17.38;93.92;101566.22;5025848;28;20046;-72
2022/09/04 07:11:13;;;;;;;27.70;22.73;;;;;;;17.49;93.78;101572.78;5025256;28;20096;-72
2022/09/04 07:14:04;;;;;;;28.80;24.33;;;;;;;17.58;93.60;101576.75;5024490;28;20029;-73
2022/09/04 07:16:43;;;;;;;27.67;23.52;;;;;;;17.73;92.81;101590.03;4981526;28;20057;-71
2022/09/04 07:19:46;;;;;;;25.30;22.38;;;;;;;17.82;92.34;101587.63;5025151;28;20883;-72
2022/09/04 07:22:40;;;;;;;27.50;22.55;;;;;;;17.99;91.97;101581.94;5024843;28;20052;-72
2022/09/04 07:25:21;;;;;;;26.45;22.35;;;;;;;18.08;91.68;101592.34;5024724;28;20026;-72
2022/09/04 07:28:08;;;;;;;23.77;21.05;;;;;;;18.17;91.88;101594.66;5008346;28;20034;-71
2022/09/04 07:30:42;;;;;;;27.43;21.63;;;;;;;18.29;91.03;101592.53;5005479;28;20519;-72
2022/09/04 07:33:30;;;;;;;22.58;19.67;;;;;;;18.42;90.07;101589.31;5021068;28;20438;-73
2022/09/04 07:36:17;;;;;;;23.00;20.20;;;;;;;18.54;89.87;101591.91;5024336;28;20455;-72
2022/09/04 07:38:53;;;;;;;25.15;21.67;;;;;;;18.67;88.74;101606.22;5022646;28;20498;-72
2022/09/04 07:41:27;;;;;;;24.25;21.65;;;;;;;18.81;89.38;101603.03;5016404;28;20058;-72
2022/09/04 07:44:14;;;;;;;23.33;20.83;;;;;;;18.95;87.81;101606.16;5006112;28;20114;-72
2022/09/04 07:47:06;;;;;;;25.40;21.48;;;;;;;19.05;87.44;101607.06;5022765;28;20158;-72
2022/09/04 07:49:48;;;;;;;25.40;21.38;;;;;;;19.22;86.30;101606.91;5010935;28;20022;-72
2022/09/04 07:52:41;;;;;;;26.13;22.20;;;;;;;19.35;85.86;101606.41;5023133;28;20125;-73
2022/09/04 07:55:21;;;;;;;26.55;23.52;;;;;;;19.46;85.75;101621.22;5022059;28;20060;-74
2022/09/04 07:58:17;;;;;;;31.02;23.88;;;;;;;19.62;85.10;101625.78;5023818;28;20025;-74
2022/09/04 08:01:22;;;;;;;35.13;26.52;;;;;;;19.77;84.06;101618.56;5023770;28;20100;-73
2022/09/04 08:03:53;;;;;;;36.22;26.73;;;;;;;19.99;83.68;101618.38;4967031;28;20041;-74
2022/09/04 08:06:24;;;;;;;36.85;28.17;;;;;;;20.15;83.25;101620.91;5014266;28;20116;-73
2022/09/04 08:09:23;;;;;;;44.83;31.20;;;;;;;20.41;82.06;101619.00;5023794;28;20054;-74
2022/09/04 08:12:06;;;;;;;47.90;31.23;;;;;;;20.60;80.88;101622.13;5023662;28;20112;-73
2022/09/04 08:14:50;;;;;;;44.60;31.48;;;;;;;20.68;80.93;101621.56;5022761;28;20022;-73
2022/09/04 08:17:24;;;;;;;48.90;30.05;;;;;;;20.81;79.73;101636.06;5018299;28;20086;-74
2022/09/04 08:20:08;;;;;;;46.67;30.35;;;;;;;20.93;78.89;101633.81;5023799;28;20034;-73
2022/09/04 08:22:52;;;;;;;39.08;29.00;;;;;;;21.10;78.07;101628.78;5021127;28;20037;-72
2022/09/04 08:25:30;;;;;;;37.90;26.58;;;;;;;21.22;76.81;101634.88;5020590;28;20061;-72
2022/09/04 08:28:11;;;;;;;40.28;26.00;;;;;;;21.35;76.18;101636.28;5022228;28;20583;-71
2022/09/04 08:31:28;;;;;;;41.63;24.02;;;;;;;21.50;75.68;101632.59;5023359;28;20064;-72
2022/09/04 08:34:30;;;;;;;36.83;25.27;;;;;;;21.67;75.44;101629.44;4981082;28;20140;-72
2022/09/04 08:37:23;;;;;;;33.97;25.05;;;;;;;21.78;74.83;101642.25;5016866;28;20032;-72
2022/09/04 08:39:54;;;;;;;35.72;23.13;;;;;;;21.88;74.78;101641.38;5021389;28;20069;-72
2022/09/04 08:42:41;;;;;;;31.88;21.67;;;;;;;22.02;74.18;101645.22;5022807;28;20037;-72
2022/09/04 08:45:19;;;;;;;26.10;20.35;;;;;;;22.15;72.33;101644.63;5018244;28;20034;-72
2022/09/04 08:48:31;;;;;;;26.42;19.35;;;;;;;22.35;72.19;101651.19;5005351;28;20468;-71
2022/09/04 08:51:05;;;;;;;24.20;18.30;;;;;;;22.40;69.86;101643.59;5022815;28;20089;-72
2022/09/04 08:54:01;;;;;;;22.70;16.83;;;;;;;22.64;70.29;101649.28;5023086;28;20029;-72
2022/09/04 08:56:40;;;;;;;23.73;17.08;;;;;;;22.99;68.81;101658.56;5021133;28;20021;-72
2022/09/04 08:59:24;;;;;;;27.10;17.95;;;;;;;23.31;67.07;101655.97;5021285;28;20029;-72
2022/09/04 09:02:23;;;;;;;22.35;17.35;;;;;;;24.44;65.99;101646.16;5023025;28;20389;-72
2022/09/04 09:05:09;;;;;;;20.63;15.52;;;;;;;25.29;61.42;101654.25;5022629;28;20037;-73
2022/09/04 09:08:03;;;;;;;19.90;13.85;;;;;;;26.14;60.88;101654.72;5017267;28;20060;-73
2022/09/04 09:10:34;;;;;;;18.80;14.77;;;;;;;27.85;52.46;101646.06;5022324;28;20197;-72
2022/09/04 09:13:31;;;;;;;19.52;12.98;;;;;;;29.05;51.62;101654.94;5019543;28;20116;-73
2022/09/04 09:16:20;;;;;;;17.95;12.60;;;;;;;29.75;48.50;101661.97;5010138;28;20052;-69
2022/09/04 09:19:08;;;;;;;14.73;10.88;;;;;;;29.87;45.53;101659.28;5021855;28;20029;-70
2022/09/04 09:22:15;;;;;;;13.65;10.43;;;;;;;30.00;48.65;101660.16;5022285;28;20044;-67
2022/09/04 09:25:01;;;;;;;14.23;9.13;;;;;;;31.24;43.62;101661.28;5022436;28;20128;-74
2022/09/04 09:27:45;;;;;;;12.55;9.05;;;;;;;32.08;41.74;101665.72;5015408;28;20033;-73
2022/09/04 09:30:21;;;;;;;10.70;8.10;;;;;;;32.69;41.28;101651.34;5022094;28;20574;-73
2022/09/04 09:32:58;;;;;;;11.55;9.50;;;;;;;33.24;37.08;101647.63;5022712;28;20037;-72
2022/09/04 09:36:00;;;;;;;12.90;8.02;;;;;;;34.32;39.75;101651.94;5021682;28;20132;-71
2022/09/04 09:39:03;;;;;;;15.20;7.90;;;;;;;34.78;37.23;101651.28;5022250;28;20030;-71
2022/09/04 09:41:50;;;;;;;10.63;7.32;;;;;;;34.67;35.97;101653.06;5020502;28;20057;-72
2022/09/04 09:44:46;;;;;;;8.52;5.00;;;;;;;34.51;34.84;101641.75;5021945;28;20538;-73
2022/09/04 09:47:50;;;;;;;10.20;5.25;;;;;;;33.31;37.40;101656.38;5020789;28;20083;-66
2022/09/04 09:50:26;;;;;;;9.98;7.05;;;;;;;33.74;34.82;101648.09;5018910;28;20039;-65
2022/09/04 09:53:21;;;;;;;8.95;5.75;;;;;;;34.71;34.86;101657.66;5022044;28;20057;-70
2022/09/04 09:56:38;;;;;;;11.32;5.15;;;;;;;35.98;33.48;101651.00;5020795;28;20368;-69
2022/09/04 09:59:28;;;;;;;6.70;5.20;;;;;;;36.17;31.71;101647.19;5003652;28;20045;-70
2022/09/04 10:02:11;;;;;;;8.20;5.22;;;;;;;35.98;31.23;101648.97;5025224;28;20091;-70
2022/09/04 10:04:59;;;;;;;9.20;4.78;;;;;;;36.44;32.91;101645.13;5024447;28;20037;-70
2022/09/04 10:07:56;;;;;;;6.75;3.88;;;;;;;36.65;30.94;101654.00;5025243;28;20455;-70
2022/09/04 10:10:44;;;;;;;7.50;4.00;;;;;;;36.42;29.77;101647.56;4986547;28;20556;-70
2022/09/04 10:13:47;;;;;;;6.30;3.80;;;;;;;36.23;30.35;101648.50;4984877;28;20049;-71
2022/09/04 10:16:41;;;;;;;6.80;3.70;;;;;;;35.91;30.17;101640.25;4986350;28;20042;-70
2022/09/04 10:19:17;;;;;;;5.82;3.47;;;;;;;34.80;31.19;101643.16;4984989;28;20433;-70
2022/09/04 10:22:17;;;;;;;6.95;3.83;;;;;;;33.89;33.55;101643.56;4983305;28;20050;-70
2022/09/04 10:25:04;;;;;;;5.95;3.50;;;;;;;31.93;37.49;101638.84;4967024;28;20034;-70
2022/09/04 10:27:47;;;;;;;5.60;3.00;;;;;;;30.67;39.85;101635.69;4966261;28;20101;-70
2022/09/04 10:30:21;;;;;;;7.35;3.20;;;;;;;29.64;41.01;101644.56;4971508;28;20038;-71
2022/09/04 10:33:17;;;;;;;6.00;3.35;;;;;;;29.08;42.19;101634.44;4985686;28;20496;-70
2022/09/04 10:35:45;;;;;;;4.93;3.05;;;;;;;28.20;43.73;101644.13;4986490;28;20041;-72
2022/09/04 10:38:20;;;;;;;4.97;2.88;;;;;;;28.57;45.18;101655.97;4986024;28;20126;-72
2022/09/04 10:41:20;;;;;;;5.80;3.53;;;;;;;28.35;44.56;101652.16;4985769;28;20076;-72
2022/09/04 10:44:08;;;;;;;7.88;3.28;;;;;;;27.84;46.17;101655.69;4984089;28;20030;-70
2022/09/04 10:46:42;;;;;;;7.53;4.10;;;;;;;27.44;46.71;101652.88;4985532;28;20027;-76
2022/09/04 10:49:26;;;;;;;7.05;4.28;;;;;;;28.88;44.67;101641.63;4985322;28;20022;-76
2022/09/04 10:52:23;;;;;;;6.68;3.90;;;;;;;31.92;39.40;101651.41;4985231;28;20052;-74
2022/09/04 10:55:13;;;;;;;8.25;3.55;;;;;;;32.64;36.48;101645.91;4966580;28;20477;-68
2022/09/04 10:57:48;;;;;;;8.20;4.18;;;;;;;31.56;37.74;101643.72;4965184;28;20027;-75
2022/09/04 11:00:19;;;;;;;7.47;3.78;;;;;;;30.95;39.61;101635.91;4971716;28;20026;-74
2022/09/04 11:03:10;;;;;;;6.07;2.70;;;;;;;31.40;37.26;101635.91;4984831;28;20069;-71
2022/09/04 11:05:56;;;;;;;5.65;2.83;;;;;;;32.07;36.76;101647.00;4986192;28;20045;-71
2022/09/04 11:08:37;;;;;;;5.22;2.75;;;;;;;33.31;34.87;101641.31;5000087;28;20117;-69
2022/09/04 11:11:39;;;;;;;4.97;2.50;;;;;;;34.49;33.36;101636.44;5022807;28;20443;-70
2022/09/04 11:14:27;;;;;;;3.95;2.17;;;;;;;33.16;32.50;101644.97;5022243;28;20676;-70
2022/09/04 11:17:11;;;;;;;5.40;2.40;;;;;;;31.73;35.00;101643.47;5017372;28;20048;-70
2022/09/04 11:20:09;;;;;;;3.72;1.92;;;;;;;31.09;35.94;101639.25;5025214;28;20099;-69
2022/09/04 11:23:03;;;;;;;3.13;1.85;;;;;;;31.93;34.63;101647.38;5023542;28;20155;-69
2022/09/04 11:25:41;;;;;;;7.00;2.38;;;;;;;32.68;33.67;101650.53;5025003;28;20038;-69
2022/09/04 11:28:29;;;;;;;6.22;2.53;;;;;;;32.70;32.86;101645.31;5024445;28;20052;-69
2022/09/04 11:31:13;;;;;;;4.95;2.53;;;;;;;31.67;34.49;101644.88;5023533;28;20037;-69
2022/09/04 11:34:20;;;;;;;5.20;2.35;;;;;;;30.56;36.78;101642.94;5023463;28;20026;-69
2022/09/04 11:37:17;;;;;;;4.55;2.25;;;;;;;29.18;38.30;101654.72;5016117;28;20044;-70
2022/09/04 11:39:51;;;;;;;4.00;2.10;;;;;;;28.49;39.14;101651.13;5025323;28;20076;-67
2022/09/04 11:42:49;;;;;;;4.40;2.40;;;;;;;28.81;40.04;101636.47;5024195;28;20489;-69
2022/09/04 11:45:52;;;;;;;8.63;2.60;;;;;;;29.14;38.50;101641.56;4990745;28;20105;-69
2022/09/04 11:48:45;;;;;;;3.88;2.30;;;;;;;29.10;38.26;101640.63;5024198;28;20036;-69
2022/09/04 11:51:24;;;;;;;5.18;2.40;;;;;;;28.83;37.60;101653.09;5004546;28;20038;-70
2022/09/04 11:54:08;;;;;;;5.63;2.88;;;;;;;28.16;39.40;101645.94;5021682;28;20052;-69
2022/09/04 11:57:03;;;;;;;6.30;3.00;;;;;;;27.87;40.38;101650.22;5023684;28;20109;-68
2022/09/04 11:59:45;;;;;;;3.75;2.50;;;;;;;27.86;40.63;101656.19;5024249;28;20104;-71
2022/09/04 12:02:32;;;;;;;5.43;2.88;;;;;;;27.90;41.51;101651.56;5023410;28;20476;-69
2022/09/04 12:05:12;;;;;;;7.10;3.08;;;;;;;28.02;40.73;101653.72;5004994;28;20137;-68
2022/09/04 12:08:09;;;;;;;6.85;3.10;;;;;;;28.13;41.54;101640.94;5004032;28;20064;-68
2022/09/04 12:10:54;;;;;;;90.20;10.40;;;;;;;28.46;40.85;101649.81;5004315;28;20069;-69
2022/09/04 12:13:42;;;;;;;4.88;2.85;;;;;;;28.70;40.37;101643.66;5016856;28;20111;-72
2022/09/04 12:16:49;;;;;;;4.72;2.85;;;;;;;29.17;38.69;101649.41;5023692;28;20061;-70
2022/09/04 12:19:41;;;;;;;6.10;3.50;;;;;;;29.45;37.73;101650.63;5021596;28;20032;-71
2022/09/04 12:22:40;;;;;;;5.43;3.00;;;;;;;29.61;37.90;101662.25;5024268;28;20022;-68
2022/09/04 12:25:33;;;;;;;5.78;3.13;;;;;;;29.53;36.18;101654.59;5021252;28;20034;-68
2022/09/04 12:28:32;;;;;;;6.05;3.10;;;;;;;29.77;36.52;101659.66;5022589;28;20498;-71
2022/09/04 12:31:16;;;;;;;8.88;3.50;;;;;;;29.57;34.24;101660.44;5004707;28;20037;-68
2022/09/04 12:34:00;;;;;;;8.85;3.60;;;;;;;29.65;35.92;101663.22;5020183;28;20025;-68
2022/09/04 12:36:47;;;;;;;7.75;3.20;;;;;;;29.62;36.06;101658.25;5023923;28;20060;-69
2022/09/04 12:39:35;;;;;;;;;;;;;;;29.77;35.60;101661.66;5023724;28;20117;-69
2022/09/04 12:42:01;;;;;;;7.97;3.45;;;;;;;29.34;35.21;101645.66;5022044;28;19956;-70
2022/09/04 12:44:37;;;;;;;7.57;3.20;;;;;;;29.59;36.37;101646.75;5021685;28;20025;-69
2022/09/04 12:47:31;;;;;;;7.20;3.50;;;;;;;29.86;35.07;101665.28;5023125;28;20104;-69
2022/09/04 12:50:00;;;;;;;5.78;3.53;;;;;;;29.69;34.96;101669.03;5022240;28;20037;-69